sensor_id;sensor_type;location;lat;lon;timestamp;temperature;humidity
7516;DHT22;3799;47.184;8.538;2022-07-15T00:00:47;24.40;49.30
7516;DHT22;3799;47.184;8.538;2022-07-15T00:03:13;24.40;49.50
7516;DHT22;3799;47.184;8.538;2022-07-15T00:05:39;24.40;49.70
7516;DHT22;3799;47.184;8.538;2022-07-15T00:08:04;24.40;49.70
7516;DHT22;3799;47.184;8.538;2022-07-15T00:10:30;24.40;49.60
7516;DHT22;3799;47.184;8.538;2022-07-15T00:12:58;24.40;49.70
7516;DHT22;3799;47.184;8.538;2022-07-15T00:15:28;24.40;49.70
7516;DHT22;3799;47.184;8.538;2022-07-15T00:17:54;24.30;49.90
7516;DHT22;3799;47.184;8.538;2022-07-15T00:20:21;24.20;50.00
7516;DHT22;3799;47.184;8.538;2022-07-15T00:22:47;24.20;50.20
7516;DHT22;3799;47.184;8.538;2022-07-15T00:25:14;24.20;50.40
7516;DHT22;3799;47.184;8.538;2022-07-15T00:27:54;24.10;50.60
7516;DHT22;3799;47.184;8.538;2022-07-15T00:30:21;24.00;50.70
7516;DHT22;3799;47.184;8.538;2022-07-15T00:32:49;24.00;51.10
7516;DHT22;3799;47.184;8.538;2022-07-15T00:35:15;23.90;51.20
7516;DHT22;3799;47.184;8.538;2022-07-15T00:37:40;23.90;51.30
7516;DHT22;3799;47.184;8.538;2022-07-15T00:40:07;23.80;51.40
7516;DHT22;3799;47.184;8.538;2022-07-15T00:42:32;23.80;51.50
7516;DHT22;3799;47.184;8.538;2022-07-15T00:45:23;23.70;51.40
7516;DHT22;3799;47.184;8.538;2022-07-15T00:47:51;23.70;51.20
7516;DHT22;3799;47.184;8.538;2022-07-15T00:50:18;23.70;51.30
7516;DHT22;3799;47.184;8.538;2022-07-15T00:52:48;23.70;51.20
7516;DHT22;3799;47.184;8.538;2022-07-15T00:55:14;23.60;51.10
7516;DHT22;3799;47.184;8.538;2022-07-15T00:57:43;23.60;51.10
7516;DHT22;3799;47.184;8.538;2022-07-15T01:00:09;23.60;51.10
7516;DHT22;3799;47.184;8.538;2022-07-15T01:02:37;23.60;51.20
7516;DHT22;3799;47.184;8.538;2022-07-15T01:05:05;23.60;51.40
7516;DHT22;3799;47.184;8.538;2022-07-15T01:07:32;23.60;51.50
7516;DHT22;3799;47.184;8.538;2022-07-15T01:09:58;23.50;51.50
7516;DHT22;3799;47.184;8.538;2022-07-15T01:12:26;23.40;51.40
7516;DHT22;3799;47.184;8.538;2022-07-15T01:14:51;23.30;51.40
7516;DHT22;3799;47.184;8.538;2022-07-15T01:17:17;23.30;51.60
7516;DHT22;3799;47.184;8.538;2022-07-15T01:19:43;23.30;51.50
7516;DHT22;3799;47.184;8.538;2022-07-15T01:22:09;23.20;51.50
7516;DHT22;3799;47.184;8.538;2022-07-15T01:24:34;23.20;51.50
7516;DHT22;3799;47.184;8.538;2022-07-15T01:27:00;23.20;51.30
7516;DHT22;3799;47.184;8.538;2022-07-15T01:29:27;23.10;51.30
7516;DHT22;3799;47.184;8.538;2022-07-15T01:31:53;23.10;51.30
7516;DHT22;3799;47.184;8.538;2022-07-15T01:34:19;23.00;51.30
7516;DHT22;3799;47.184;8.538;2022-07-15T01:36:45;23.10;51.30
7516;DHT22;3799;47.184;8.538;2022-07-15T01:39:11;23.00;51.30
7516;DHT22;3799;47.184;8.538;2022-07-15T01:41:37;23.00;51.20
7516;DHT22;3799;47.184;8.538;2022-07-15T01:44:03;23.00;51.30
7516;DHT22;3799;47.184;8.538;2022-07-15T01:46:29;22.90;51.20
7516;DHT22;3799;47.184;8.538;2022-07-15T01:48:55;22.90;51.20
7516;DHT22;3799;47.184;8.538;2022-07-15T01:51:39;22.80;51.30
7516;DHT22;3799;47.184;8.538;2022-07-15T01:54:07;22.80;51.40
7516;DHT22;3799;47.184;8.538;2022-07-15T01:56:33;22.80;51.70
7516;DHT22;3799;47.184;8.538;2022-07-15T01:59:02;22.70;51.70
7516;DHT22;3799;47.184;8.538;2022-07-15T02:01:28;22.60;52.00
7516;DHT22;3799;47.184;8.538;2022-07-15T02:03:54;22.50;52.20
7516;DHT22;3799;47.184;8.538;2022-07-15T02:06:19;22.50;52.20
7516;DHT22;3799;47.184;8.538;2022-07-15T02:08:45;22.40;52.20
7516;DHT22;3799;47.184;8.538;2022-07-15T02:11:11;22.40;52.40
7516;DHT22;3799;47.184;8.538;2022-07-15T02:13:36;22.30;52.40
7516;DHT22;3799;47.184;8.538;2022-07-15T02:16:02;22.30;52.50
7516;DHT22;3799;47.184;8.538;2022-07-15T02:18:28;22.20;52.60
7516;DHT22;3799;47.184;8.538;2022-07-15T02:20:54;22.20;52.80
7516;DHT22;3799;47.184;8.538;2022-07-15T02:23:19;22.10;52.80
7516;DHT22;3799;47.184;8.538;2022-07-15T02:25:45;22.10;52.80
7516;DHT22;3799;47.184;8.538;2022-07-15T02:28:11;22.10;52.80
7516;DHT22;3799;47.184;8.538;2022-07-15T02:30:38;22.00;52.70
7516;DHT22;3799;47.184;8.538;2022-07-15T02:33:05;22.00;52.70
7516;DHT22;3799;47.184;8.538;2022-07-15T02:35:31;21.90;52.60
7516;DHT22;3799;47.184;8.538;2022-07-15T02:37:58;21.90;52.50
7516;DHT22;3799;47.184;8.538;2022-07-15T02:40:25;21.90;52.60
7516;DHT22;3799;47.184;8.538;2022-07-15T02:42:56;21.80;52.60
7516;DHT22;3799;47.184;8.538;2022-07-15T02:45:25;21.80;52.70
7516;DHT22;3799;47.184;8.538;2022-07-15T02:47:51;21.80;52.80
7516;DHT22;3799;47.184;8.538;2022-07-15T02:50:17;21.70;52.80
7516;DHT22;3799;47.184;8.538;2022-07-15T02:52:44;21.70;52.60
7516;DHT22;3799;47.184;8.538;2022-07-15T02:55:11;21.70;52.80
7516;DHT22;3799;47.184;8.538;2022-07-15T02:57:38;21.70;52.90
7516;DHT22;3799;47.184;8.538;2022-07-15T03:00:06;21.60;52.90
7516;DHT22;3799;47.184;8.538;2022-07-15T03:02:32;21.60;52.90
7516;DHT22;3799;47.184;8.538;2022-07-15T03:04:57;21.60;52.90
7516;DHT22;3799;47.184;8.538;2022-07-15T03:07:23;21.50;52.80
7516;DHT22;3799;47.184;8.538;2022-07-15T03:09:49;21.50;52.90
7516;DHT22;3799;47.184;8.538;2022-07-15T03:12:15;21.40;52.80
7516;DHT22;3799;47.184;8.538;2022-07-15T03:14:43;21.40;52.90
7516;DHT22;3799;47.184;8.538;2022-07-15T03:17:08;21.30;53.00
7516;DHT22;3799;47.184;8.538;2022-07-15T03:19:34;21.30;53.00
7516;DHT22;3799;47.184;8.538;2022-07-15T03:22:00;21.30;53.20
7516;DHT22;3799;47.184;8.538;2022-07-15T03:24:25;21.20;53.20
7516;DHT22;3799;47.184;8.538;2022-07-15T03:26:51;21.20;53.30
7516;DHT22;3799;47.184;8.538;2022-07-15T03:29:17;21.10;53.40
7516;DHT22;3799;47.184;8.538;2022-07-15T03:31:43;21.00;53.60
7516;DHT22;3799;47.184;8.538;2022-07-15T03:34:10;20.90;53.90
7516;DHT22;3799;47.184;8.538;2022-07-15T03:36:39;20.80;54.10
7516;DHT22;3799;47.184;8.538;2022-07-15T03:39:06;20.80;54.30
7516;DHT22;3799;47.184;8.538;2022-07-15T03:41:32;20.80;54.50
7516;DHT22;3799;47.184;8.538;2022-07-15T03:44:00;20.80;54.30
7516;DHT22;3799;47.184;8.538;2022-07-15T03:46:26;20.80;54.30
7516;DHT22;3799;47.184;8.538;2022-07-15T03:48:52;20.80;54.30
7516;DHT22;3799;47.184;8.538;2022-07-15T03:51:18;20.80;54.00
7516;DHT22;3799;47.184;8.538;2022-07-15T03:53:44;20.80;53.90
7516;DHT22;3799;47.184;8.538;2022-07-15T03:56:10;20.80;54.10
7516;DHT22;3799;47.184;8.538;2022-07-15T03:58:36;20.80;54.20
7516;DHT22;3799;47.184;8.538;2022-07-15T04:01:01;20.80;54.40
7516;DHT22;3799;47.184;8.538;2022-07-15T04:03:27;20.80;54.50
7516;DHT22;3799;47.184;8.538;2022-07-15T04:05:53;20.80;54.60
7516;DHT22;3799;47.184;8.538;2022-07-15T04:08:18;20.80;54.70
7516;DHT22;3799;47.184;8.538;2022-07-15T04:10:45;20.90;54.70
7516;DHT22;3799;47.184;8.538;2022-07-15T04:13:11;20.80;54.70
7516;DHT22;3799;47.184;8.538;2022-07-15T04:15:37;20.80;54.90
7516;DHT22;3799;47.184;8.538;2022-07-15T04:18:02;20.80;54.90
7516;DHT22;3799;47.184;8.538;2022-07-15T04:20:28;20.70;54.90
7516;DHT22;3799;47.184;8.538;2022-07-15T04:22:54;20.70;55.00
7516;DHT22;3799;47.184;8.538;2022-07-15T04:25:21;20.70;55.00
7516;DHT22;3799;47.184;8.538;2022-07-15T04:27:47;20.70;55.00
7516;DHT22;3799;47.184;8.538;2022-07-15T04:30:16;20.70;55.00
7516;DHT22;3799;47.184;8.538;2022-07-15T04:32:42;20.60;55.10
7516;DHT22;3799;47.184;8.538;2022-07-15T04:35:08;20.70;55.20
7516;DHT22;3799;47.184;8.538;2022-07-15T04:37:34;20.60;55.20
7516;DHT22;3799;47.184;8.538;2022-07-15T04:40:00;20.60;55.10
7516;DHT22;3799;47.184;8.538;2022-07-15T04:42:25;20.60;55.30
7516;DHT22;3799;47.184;8.538;2022-07-15T04:44:52;20.70;55.50
7516;DHT22;3799;47.184;8.538;2022-07-15T04:47:18;20.70;55.50
7516;DHT22;3799;47.184;8.538;2022-07-15T04:49:43;20.80;55.40
7516;DHT22;3799;47.184;8.538;2022-07-15T04:52:28;20.80;55.50
7516;DHT22;3799;47.184;8.538;2022-07-15T04:54:56;20.90;55.50
7516;DHT22;3799;47.184;8.538;2022-07-15T04:57:24;21.00;55.60
7516;DHT22;3799;47.184;8.538;2022-07-15T04:59:50;21.10;55.40
7516;DHT22;3799;47.184;8.538;2022-07-15T05:02:16;21.20;55.40
7516;DHT22;3799;47.184;8.538;2022-07-15T05:04:42;21.30;55.40
7516;DHT22;3799;47.184;8.538;2022-07-15T05:07:08;21.40;55.40
7516;DHT22;3799;47.184;8.538;2022-07-15T05:09:34;21.40;55.10
7516;DHT22;3799;47.184;8.538;2022-07-15T05:12:00;21.50;55.20
7516;DHT22;3799;47.184;8.538;2022-07-15T05:14:26;21.60;55.30
7516;DHT22;3799;47.184;8.538;2022-07-15T05:16:51;21.60;54.80
7516;DHT22;3799;47.184;8.538;2022-07-15T05:19:17;21.60;54.80
7516;DHT22;3799;47.184;8.538;2022-07-15T05:21:43;21.70;54.70
7516;DHT22;3799;47.184;8.538;2022-07-15T05:24:09;21.70;54.70
7516;DHT22;3799;47.184;8.538;2022-07-15T05:26:35;21.80;54.90
7516;DHT22;3799;47.184;8.538;2022-07-15T05:29:01;21.90;55.00
7516;DHT22;3799;47.184;8.538;2022-07-15T05:31:29;21.90;55.00
7516;DHT22;3799;47.184;8.538;2022-07-15T05:33:54;21.90;55.10
7516;DHT22;3799;47.184;8.538;2022-07-15T05:36:20;22.00;55.50
7516;DHT22;3799;47.184;8.538;2022-07-15T05:38:48;22.00;55.30
7516;DHT22;3799;47.184;8.538;2022-07-15T05:41:14;22.10;55.20
7516;DHT22;3799;47.184;8.538;2022-07-15T05:43:40;22.10;55.20
7516;DHT22;3799;47.184;8.538;2022-07-15T05:46:06;22.10;55.10
7516;DHT22;3799;47.184;8.538;2022-07-15T05:48:37;22.20;54.90
7516;DHT22;3799;47.184;8.538;2022-07-15T05:51:05;22.20;55.10
7516;DHT22;3799;47.184;8.538;2022-07-15T05:53:31;22.30;55.30
7516;DHT22;3799;47.184;8.538;2022-07-15T05:55:57;22.30;55.10
7516;DHT22;3799;47.184;8.538;2022-07-15T05:58:23;22.40;54.80
7516;DHT22;3799;47.184;8.538;2022-07-15T06:00:53;22.40;54.70
7516;DHT22;3799;47.184;8.538;2022-07-15T06:03:18;22.50;54.70
7516;DHT22;3799;47.184;8.538;2022-07-15T06:05:44;22.60;54.70
7516;DHT22;3799;47.184;8.538;2022-07-15T06:08:10;22.70;54.50
7516;DHT22;3799;47.184;8.538;2022-07-15T06:10:37;22.70;54.50
7516;DHT22;3799;47.184;8.538;2022-07-15T06:13:03;22.80;54.50
7516;DHT22;3799;47.184;8.538;2022-07-15T06:15:29;23.00;54.50
7516;DHT22;3799;47.184;8.538;2022-07-15T06:17:56;23.10;54.20
7516;DHT22;3799;47.184;8.538;2022-07-15T06:20:22;23.20;54.10
7516;DHT22;3799;47.184;8.538;2022-07-15T06:22:48;23.30;53.90
7516;DHT22;3799;47.184;8.538;2022-07-15T06:25:14;23.40;53.70
7516;DHT22;3799;47.184;8.538;2022-07-15T06:27:40;23.50;53.40
7516;DHT22;3799;47.184;8.538;2022-07-15T06:30:07;23.50;53.20
7516;DHT22;3799;47.184;8.538;2022-07-15T06:32:33;23.60;52.50
7516;DHT22;3799;47.184;8.538;2022-07-15T06:34:58;23.60;52.70
7516;DHT22;3799;47.184;8.538;2022-07-15T06:37:24;23.50;52.60
7516;DHT22;3799;47.184;8.538;2022-07-15T06:39:50;23.50;52.50
7516;DHT22;3799;47.184;8.538;2022-07-15T06:42:16;23.50;52.30
7516;DHT22;3799;47.184;8.538;2022-07-15T06:44:49;23.50;52.40
7516;DHT22;3799;47.184;8.538;2022-07-15T06:47:15;23.50;52.90
7516;DHT22;3799;47.184;8.538;2022-07-15T06:49:41;23.50;52.40
7516;DHT22;3799;47.184;8.538;2022-07-15T06:52:15;23.50;52.60
7516;DHT22;3799;47.184;8.538;2022-07-15T06:54:41;23.60;52.30
7516;DHT22;3799;47.184;8.538;2022-07-15T06:57:07;23.60;51.90
7516;DHT22;3799;47.184;8.538;2022-07-15T06:59:34;23.70;52.30
7516;DHT22;3799;47.184;8.538;2022-07-15T07:02:00;23.70;52.10
7516;DHT22;3799;47.184;8.538;2022-07-15T07:04:26;23.80;51.30
7516;DHT22;3799;47.184;8.538;2022-07-15T07:06:52;23.80;51.20
7516;DHT22;3799;47.184;8.538;2022-07-15T07:09:17;23.80;51.50
7516;DHT22;3799;47.184;8.538;2022-07-15T07:11:43;23.80;51.60
7516;DHT22;3799;47.184;8.538;2022-07-15T07:14:09;23.90;51.60
7516;DHT22;3799;47.184;8.538;2022-07-15T07:16:35;24.00;51.50
7516;DHT22;3799;47.184;8.538;2022-07-15T07:19:00;24.10;51.70
7516;DHT22;3799;47.184;8.538;2022-07-15T07:21:29;24.20;51.20
7516;DHT22;3799;47.184;8.538;2022-07-15T07:23:55;24.20;51.10
7516;DHT22;3799;47.184;8.538;2022-07-15T07:26:21;24.30;51.30
7516;DHT22;3799;47.184;8.538;2022-07-15T07:28:46;24.40;51.00
7516;DHT22;3799;47.184;8.538;2022-07-15T07:31:14;24.40;50.00
7516;DHT22;3799;47.184;8.538;2022-07-15T07:33:40;24.30;50.40
7516;DHT22;3799;47.184;8.538;2022-07-15T07:36:07;24.30;50.40
7516;DHT22;3799;47.184;8.538;2022-07-15T07:38:34;24.20;50.50
7516;DHT22;3799;47.184;8.538;2022-07-15T07:41:00;24.20;50.80
7516;DHT22;3799;47.184;8.538;2022-07-15T07:43:26;24.20;50.80
7516;DHT22;3799;47.184;8.538;2022-07-15T07:45:53;24.20;50.70
7516;DHT22;3799;47.184;8.538;2022-07-15T07:48:19;24.20;51.00
7516;DHT22;3799;47.184;8.538;2022-07-15T07:50:46;24.30;51.10
7516;DHT22;3799;47.184;8.538;2022-07-15T07:53:12;24.30;50.80
7516;DHT22;3799;47.184;8.538;2022-07-15T07:55:41;24.40;50.50
7516;DHT22;3799;47.184;8.538;2022-07-15T07:58:06;24.40;50.30
7516;DHT22;3799;47.184;8.538;2022-07-15T08:00:33;24.40;50.40
7516;DHT22;3799;47.184;8.538;2022-07-15T08:03:07;24.50;50.50
7516;DHT22;3799;47.184;8.538;2022-07-15T08:05:32;24.60;50.60
7516;DHT22;3799;47.184;8.538;2022-07-15T08:08:18;24.80;50.20
7516;DHT22;3799;47.184;8.538;2022-07-15T08:10:51;24.80;49.80
7516;DHT22;3799;47.184;8.538;2022-07-15T08:13:19;24.90;50.00
7516;DHT22;3799;47.184;8.538;2022-07-15T08:15:45;24.90;49.50
7516;DHT22;3799;47.184;8.538;2022-07-15T08:18:11;24.90;49.50
7516;DHT22;3799;47.184;8.538;2022-07-15T08:20:37;24.90;49.50
7516;DHT22;3799;47.184;8.538;2022-07-15T08:23:04;24.90;49.60
7516;DHT22;3799;47.184;8.538;2022-07-15T08:25:33;24.90;49.50
7516;DHT22;3799;47.184;8.538;2022-07-15T08:27:59;25.00;49.40
7516;DHT22;3799;47.184;8.538;2022-07-15T08:30:29;25.00;49.40
7516;DHT22;3799;47.184;8.538;2022-07-15T08:32:56;25.00;49.50
7516;DHT22;3799;47.184;8.538;2022-07-15T08:35:23;25.10;49.60
7516;DHT22;3799;47.184;8.538;2022-07-15T08:37:50;25.20;49.70
7516;DHT22;3799;47.184;8.538;2022-07-15T08:40:16;25.30;49.60
7516;DHT22;3799;47.184;8.538;2022-07-15T08:42:42;25.30;49.40
7516;DHT22;3799;47.184;8.538;2022-07-15T08:45:10;25.40;49.30
7516;DHT22;3799;47.184;8.538;2022-07-15T08:47:40;25.50;49.30
7516;DHT22;3799;47.184;8.538;2022-07-15T08:50:09;25.50;49.10
7516;DHT22;3799;47.184;8.538;2022-07-15T08:52:37;25.50;49.10
7516;DHT22;3799;47.184;8.538;2022-07-15T08:55:06;25.50;49.30
7516;DHT22;3799;47.184;8.538;2022-07-15T08:57:32;25.60;49.50
7516;DHT22;3799;47.184;8.538;2022-07-15T09:00:04;25.70;50.30
7516;DHT22;3799;47.184;8.538;2022-07-15T09:02:33;25.80;50.20
7516;DHT22;3799;47.184;8.538;2022-07-15T09:05:18;25.80;50.10
7516;DHT22;3799;47.184;8.538;2022-07-15T09:08:01;26.00;49.70
7516;DHT22;3799;47.184;8.538;2022-07-15T09:10:56;26.00;49.60
7516;DHT22;3799;47.184;8.538;2022-07-15T09:13:35;26.10;49.60
7516;DHT22;3799;47.184;8.538;2022-07-15T09:16:12;26.20;49.60
7516;DHT22;3799;47.184;8.538;2022-07-15T09:18:44;26.30;49.50
7516;DHT22;3799;47.184;8.538;2022-07-15T09:21:20;26.40;49.20
7516;DHT22;3799;47.184;8.538;2022-07-15T09:23:47;26.50;49.20
7516;DHT22;3799;47.184;8.538;2022-07-15T09:26:27;26.60;49.30
7516;DHT22;3799;47.184;8.538;2022-07-15T09:28:59;26.60;49.10
7516;DHT22;3799;47.184;8.538;2022-07-15T09:31:36;26.70;49.20
7516;DHT22;3799;47.184;8.538;2022-07-15T09:34:23;26.80;48.70
7516;DHT22;3799;47.184;8.538;2022-07-15T09:36:52;26.90;48.30
7516;DHT22;3799;47.184;8.538;2022-07-15T09:39:26;26.90;48.50
7516;DHT22;3799;47.184;8.538;2022-07-15T09:41:52;27.00;48.60
7516;DHT22;3799;47.184;8.538;2022-07-15T09:44:20;27.10;48.30
7516;DHT22;3799;47.184;8.538;2022-07-15T09:56:57;27.50;47.50
7516;DHT22;3799;47.184;8.538;2022-07-15T09:59:24;27.60;47.50
7516;DHT22;3799;47.184;8.538;2022-07-15T10:01:51;27.60;47.60
7516;DHT22;3799;47.184;8.538;2022-07-15T10:04:21;27.60;47.40
7516;DHT22;3799;47.184;8.538;2022-07-15T10:06:51;27.70;47.40
7516;DHT22;3799;47.184;8.538;2022-07-15T10:09:24;27.80;47.70
7516;DHT22;3799;47.184;8.538;2022-07-15T10:11:53;27.90;47.20
7516;DHT22;3799;47.184;8.538;2022-07-15T10:30:43;28.40;46.10
7516;DHT22;3799;47.184;8.538;2022-07-15T10:33:17;28.40;45.90
7516;DHT22;3799;47.184;8.538;2022-07-15T10:35:51;28.50;46.10
7516;DHT22;3799;47.184;8.538;2022-07-15T10:41:11;28.70;45.60
7516;DHT22;3799;47.184;8.538;2022-07-15T10:43:49;28.80;45.80
7516;DHT22;3799;47.184;8.538;2022-07-15T10:48:48;29.10;46.00
7516;DHT22;3799;47.184;8.538;2022-07-15T10:54:11;29.30;45.50
7516;DHT22;3799;47.184;8.538;2022-07-15T10:56:56;29.50;45.30
7516;DHT22;3799;47.184;8.538;2022-07-15T10:59:24;29.60;45.00
7516;DHT22;3799;47.184;8.538;2022-07-15T11:02:11;29.70;44.80
7516;DHT22;3799;47.184;8.538;2022-07-15T11:04:37;29.90;44.80
7516;DHT22;3799;47.184;8.538;2022-07-15T11:15:03;30.10;44.20
7516;DHT22;3799;47.184;8.538;2022-07-15T11:20:01;30.20;43.80
7516;DHT22;3799;47.184;8.538;2022-07-15T11:22:30;30.30;43.90
7516;DHT22;3799;47.184;8.538;2022-07-15T11:24:56;30.40;43.90
7516;DHT22;3799;47.184;8.538;2022-07-15T11:27:24;30.40;43.80
7516;DHT22;3799;47.184;8.538;2022-07-15T11:29:52;30.60;43.80
7516;DHT22;3799;47.184;8.538;2022-07-15T11:32:21;30.80;44.20
7516;DHT22;3799;47.184;8.538;2022-07-15T11:34:52;30.90;43.50
7516;DHT22;3799;47.184;8.538;2022-07-15T11:37:33;31.00;43.60
7516;DHT22;3799;47.184;8.538;2022-07-15T11:40:10;31.10;43.40
7516;DHT22;3799;47.184;8.538;2022-07-15T11:42:36;31.20;43.30
7516;DHT22;3799;47.184;8.538;2022-07-15T11:45:36;31.40;43.30
7516;DHT22;3799;47.184;8.538;2022-07-15T11:48:04;31.50;42.50
7516;DHT22;3799;47.184;8.538;2022-07-15T11:50:54;31.60;42.50
7516;DHT22;3799;47.184;8.538;2022-07-15T11:53:18;31.60;42.80
7516;DHT22;3799;47.184;8.538;2022-07-15T11:55:56;31.80;42.90
7516;DHT22;3799;47.184;8.538;2022-07-15T11:58:34;31.90;42.10
7516;DHT22;3799;47.184;8.538;2022-07-15T12:01:08;32.00;41.30
7516;DHT22;3799;47.184;8.538;2022-07-15T12:03:40;32.00;41.60
7516;DHT22;3799;47.184;8.538;2022-07-15T12:06:10;32.10;41.70
7516;DHT22;3799;47.184;8.538;2022-07-15T12:08:49;32.20;42.00
7516;DHT22;3799;47.184;8.538;2022-07-15T12:11:35;32.40;42.00
7516;DHT22;3799;47.184;8.538;2022-07-15T12:14:12;32.60;41.40
7516;DHT22;3799;47.184;8.538;2022-07-15T12:16:53;32.90;41.30
7516;DHT22;3799;47.184;8.538;2022-07-15T12:19:21;32.90;40.90
7516;DHT22;3799;47.184;8.538;2022-07-15T12:21:50;32.60;41.20
7516;DHT22;3799;47.184;8.538;2022-07-15T12:24:21;32.60;41.60
7516;DHT22;3799;47.184;8.538;2022-07-15T12:29:18;32.80;40.70
7516;DHT22;3799;47.184;8.538;2022-07-15T12:31:52;32.90;40.90
7516;DHT22;3799;47.184;8.538;2022-07-15T12:34:18;33.20;40.90
7516;DHT22;3799;47.184;8.538;2022-07-15T12:36:44;33.30;40.40
7516;DHT22;3799;47.184;8.538;2022-07-15T12:39:15;33.40;40.70
7516;DHT22;3799;47.184;8.538;2022-07-15T12:41:43;33.50;40.50
7516;DHT22;3799;47.184;8.538;2022-07-15T12:44:10;33.70;39.90
7516;DHT22;3799;47.184;8.538;2022-07-15T12:46:57;33.80;39.40
7516;DHT22;3799;47.184;8.538;2022-07-15T12:49:43;33.90;39.40
7516;DHT22;3799;47.184;8.538;2022-07-15T12:55:20;33.90;38.10
7516;DHT22;3799;47.184;8.538;2022-07-15T12:57:46;33.70;38.00
7516;DHT22;3799;47.184;8.538;2022-07-15T13:00:15;33.50;38.50
7516;DHT22;3799;47.184;8.538;2022-07-15T13:05:52;33.60;37.30
7516;DHT22;3799;47.184;8.538;2022-07-15T13:08:21;33.70;37.40
7516;DHT22;3799;47.184;8.538;2022-07-15T13:10:50;33.80;37.20
7516;DHT22;3799;47.184;8.538;2022-07-15T13:13:18;33.70;36.80
7516;DHT22;3799;47.184;8.538;2022-07-15T13:15:45;33.40;37.20
7516;DHT22;3799;47.184;8.538;2022-07-15T13:18:19;32.90;37.60
7516;DHT22;3799;47.184;8.538;2022-07-15T13:20:45;32.50;37.40
7516;DHT22;3799;47.184;8.538;2022-07-15T13:23:12;32.10;37.40
7516;DHT22;3799;47.184;8.538;2022-07-15T13:25:38;31.70;38.30
7516;DHT22;3799;47.184;8.538;2022-07-15T13:28:08;31.60;39.10
7516;DHT22;3799;47.184;8.538;2022-07-15T13:30:34;31.60;39.10
7516;DHT22;3799;47.184;8.538;2022-07-15T13:33:01;31.90;38.30
7516;DHT22;3799;47.184;8.538;2022-07-15T13:35:27;32.30;37.80
7516;DHT22;3799;47.184;8.538;2022-07-15T13:37:53;32.80;37.70
7516;DHT22;3799;47.184;8.538;2022-07-15T13:40:19;33.10;36.50
7516;DHT22;3799;47.184;8.538;2022-07-15T13:42:45;33.40;36.40
7516;DHT22;3799;47.184;8.538;2022-07-15T13:45:12;33.60;36.40
7516;DHT22;3799;47.184;8.538;2022-07-15T13:47:38;33.60;36.10
7516;DHT22;3799;47.184;8.538;2022-07-15T13:50:05;33.40;35.90
7516;DHT22;3799;47.184;8.538;2022-07-15T13:52:51;33.40;35.60
7516;DHT22;3799;47.184;8.538;2022-07-15T13:55:18;33.50;35.80
7516;DHT22;3799;47.184;8.538;2022-07-15T13:57:45;33.70;35.80
7516;DHT22;3799;47.184;8.538;2022-07-15T14:00:13;34.00;35.40
7516;DHT22;3799;47.184;8.538;2022-07-15T14:02:42;34.20;35.40
7516;DHT22;3799;47.184;8.538;2022-07-15T14:05:10;34.50;34.50
7516;DHT22;3799;47.184;8.538;2022-07-15T14:07:36;34.60;34.20
7516;DHT22;3799;47.184;8.538;2022-07-15T14:10:02;34.70;34.20
7516;DHT22;3799;47.184;8.538;2022-07-15T14:12:28;34.70;34.40
7516;DHT22;3799;47.184;8.538;2022-07-15T14:14:56;34.70;34.70
7516;DHT22;3799;47.184;8.538;2022-07-15T14:17:22;34.70;35.60
7516;DHT22;3799;47.184;8.538;2022-07-15T14:19:48;34.60;36.00
7516;DHT22;3799;47.184;8.538;2022-07-15T14:22:13;34.90;36.00
7516;DHT22;3799;47.184;8.538;2022-07-15T14:24:39;35.10;35.40
7516;DHT22;3799;47.184;8.538;2022-07-15T14:27:05;35.30;34.00
7516;DHT22;3799;47.184;8.538;2022-07-15T14:29:34;35.50;33.80
7516;DHT22;3799;47.184;8.538;2022-07-15T14:31:59;35.30;34.10
7516;DHT22;3799;47.184;8.538;2022-07-15T14:34:25;35.00;34.30
7516;DHT22;3799;47.184;8.538;2022-07-15T14:36:51;34.70;34.80
7516;DHT22;3799;47.184;8.538;2022-07-15T14:39:16;34.50;35.30
7516;DHT22;3799;47.184;8.538;2022-07-15T14:41:45;34.50;35.20
7516;DHT22;3799;47.184;8.538;2022-07-15T14:44:10;34.80;34.90
7516;DHT22;3799;47.184;8.538;2022-07-15T14:46:36;35.10;34.90
7516;DHT22;3799;47.184;8.538;2022-07-15T14:49:02;35.30;34.30
7516;DHT22;3799;47.184;8.538;2022-07-15T14:51:28;35.60;34.00
7516;DHT22;3799;47.184;8.538;2022-07-15T14:53:54;35.80;33.10
7516;DHT22;3799;47.184;8.538;2022-07-15T14:56:20;35.90;33.00
7516;DHT22;3799;47.184;8.538;2022-07-15T14:58:46;36.10;33.30
7516;DHT22;3799;47.184;8.538;2022-07-15T15:01:11;36.20;33.70
7516;DHT22;3799;47.184;8.538;2022-07-15T15:03:37;36.40;33.20
7516;DHT22;3799;47.184;8.538;2022-07-15T15:06:04;36.50;33.00
7516;DHT22;3799;47.184;8.538;2022-07-15T15:08:30;36.70;33.00
7516;DHT22;3799;47.184;8.538;2022-07-15T15:10:56;36.80;32.40
7516;DHT22;3799;47.184;8.538;2022-07-15T15:13:24;37.00;32.40
7516;DHT22;3799;47.184;8.538;2022-07-15T15:15:50;37.10;32.40
7516;DHT22;3799;47.184;8.538;2022-07-15T15:18:16;37.10;32.10
7516;DHT22;3799;47.184;8.538;2022-07-15T15:20:44;37.10;32.20
7516;DHT22;3799;47.184;8.538;2022-07-15T15:23:09;37.10;32.40
7516;DHT22;3799;47.184;8.538;2022-07-15T15:25:35;37.10;32.70
7516;DHT22;3799;47.184;8.538;2022-07-15T15:28:19;37.30;32.60
7516;DHT22;3799;47.184;8.538;2022-07-15T15:30:45;37.40;33.10
7516;DHT22;3799;47.184;8.538;2022-07-15T15:33:11;37.50;32.70
7516;DHT22;3799;47.184;8.538;2022-07-15T15:35:36;37.50;32.30
7516;DHT22;3799;47.184;8.538;2022-07-15T15:38:02;37.50;32.80
7516;DHT22;3799;47.184;8.538;2022-07-15T15:40:31;37.50;32.60
7516;DHT22;3799;47.184;8.538;2022-07-15T15:42:57;37.50;32.50
7516;DHT22;3799;47.184;8.538;2022-07-15T15:45:23;37.40;31.70
7516;DHT22;3799;47.184;8.538;2022-07-15T15:47:49;37.30;31.50
7516;DHT22;3799;47.184;8.538;2022-07-15T15:50:17;37.30;31.90
7516;DHT22;3799;47.184;8.538;2022-07-15T15:52:43;37.20;31.90
7516;DHT22;3799;47.184;8.538;2022-07-15T15:55:09;37.10;32.00
7516;DHT22;3799;47.184;8.538;2022-07-15T15:57:34;37.10;32.50
7516;DHT22;3799;47.184;8.538;2022-07-15T16:00:03;37.10;32.30
7516;DHT22;3799;47.184;8.538;2022-07-15T16:02:32;37.20;31.90
7516;DHT22;3799;47.184;8.538;2022-07-15T16:04:58;37.10;32.40
7516;DHT22;3799;47.184;8.538;2022-07-15T16:07:23;36.80;32.10
7516;DHT22;3799;47.184;8.538;2022-07-15T16:09:49;36.60;32.60
7516;DHT22;3799;47.184;8.538;2022-07-15T16:12:18;36.50;32.50
7516;DHT22;3799;47.184;8.538;2022-07-15T16:14:47;36.50;32.40
7516;DHT22;3799;47.184;8.538;2022-07-15T16:17:13;36.50;32.40
7516;DHT22;3799;47.184;8.538;2022-07-15T16:19:40;36.40;32.50
7516;DHT22;3799;47.184;8.538;2022-07-15T16:22:06;36.40;32.60
7516;DHT22;3799;47.184;8.538;2022-07-15T16:24:50;36.50;32.80
7516;DHT22;3799;47.184;8.538;2022-07-15T16:27:16;36.60;32.50
7516;DHT22;3799;47.184;8.538;2022-07-15T16:29:41;36.60;32.60
7516;DHT22;3799;47.184;8.538;2022-07-15T16:32:07;36.60;32.40
7516;DHT22;3799;47.184;8.538;2022-07-15T16:34:33;36.70;32.30
7516;DHT22;3799;47.184;8.538;2022-07-15T16:37:01;36.70;32.10
7516;DHT22;3799;47.184;8.538;2022-07-15T16:39:27;36.60;32.50
7516;DHT22;3799;47.184;8.538;2022-07-15T16:41:52;36.60;32.40
7516;DHT22;3799;47.184;8.538;2022-07-15T16:44:20;36.60;32.50
7516;DHT22;3799;47.184;8.538;2022-07-15T16:46:46;36.60;32.60
7516;DHT22;3799;47.184;8.538;2022-07-15T16:49:12;36.60;32.50
7516;DHT22;3799;47.184;8.538;2022-07-15T16:51:38;36.40;32.30
7516;DHT22;3799;47.184;8.538;2022-07-15T16:54:03;36.30;31.90
7516;DHT22;3799;47.184;8.538;2022-07-15T16:56:29;36.20;31.90
7516;DHT22;3799;47.184;8.538;2022-07-15T16:58:55;36.00;32.30
7516;DHT22;3799;47.184;8.538;2022-07-15T17:01:20;35.90;32.80